createdAt,value
2017-03-23T00:00:33.914Z,0
2017-03-23T00:01:42.708Z,0
2017-03-23T00:02:51.414Z,0
2017-03-23T00:04:00.155Z,0
2017-03-23T00:05:09.098Z,0
2017-03-23T00:06:17.797Z,0
2017-03-23T00:07:26.550Z,0
2017-03-23T00:08:35.265Z,0
2017-03-23T00:09:44.310Z,0
2017-03-23T00:10:53.015Z,0
2017-03-23T00:12:02.060Z,0
2017-03-23T00:13:10.774Z,0
2017-03-23T00:14:19.843Z,0
2017-03-23T00:15:28.808Z,0
2017-03-23T00:16:37.874Z,0
2017-03-23T00:17:46.636Z,0
2017-03-23T00:18:55.700Z,0
2017-03-23T00:20:04.410Z,0
2017-03-23T00:21:13.109Z,0
2017-03-23T00:22:21.853Z,0
2017-03-23T00:23:30.622Z,0
2017-03-23T00:24:39.385Z,0
2017-03-23T00:25:48.150Z,0
2017-03-23T00:26:57.213Z,0
2017-03-23T00:28:05.928Z,0
2017-03-23T00:29:15.285Z,0
2017-03-23T00:30:24.048Z,0
2017-03-23T00:31:32.813Z,0
2017-03-23T00:32:41.576Z,0
2017-03-23T00:33:50.354Z,0
2017-03-23T00:34:59.073Z,0
2017-03-23T00:36:08.429Z,0
2017-03-23T00:37:17.189Z,0
2017-03-23T00:38:26.113Z,0
2017-03-23T00:39:34.822Z,0
2017-03-23T00:40:43.565Z,0
2017-03-23T00:41:52.465Z,0
2017-03-23T00:43:01.274Z,0
2017-03-23T00:44:09.975Z,0
2017-03-23T00:45:18.731Z,0
2017-03-23T00:46:27.527Z,0
2017-03-23T00:47:36.422Z,0
2017-03-23T00:48:45.490Z,0
2017-03-23T00:49:54.259Z,0
2017-03-23T00:51:03.012Z,0
2017-03-23T00:52:11.774Z,0
2017-03-23T00:53:20.540Z,0
2017-03-23T00:54:29.304Z,0
2017-03-23T00:55:38.053Z,0
2017-03-23T00:56:46.961Z,0
2017-03-23T00:57:56.020Z,0
2017-03-23T00:59:04.778Z,0
2017-03-23T01:00:13.547Z,0
2017-03-23T01:01:22.508Z,0
2017-03-23T01:02:31.254Z,0
2017-03-23T01:03:39.957Z,0
2017-03-23T01:04:49.000Z,0
2017-03-23T01:05:57.757Z,0
2017-03-23T01:07:06.527Z,0
2017-03-23T01:08:15.283Z,0
2017-03-23T01:09:24.331Z,0
2017-03-23T01:10:33.087Z,0
2017-03-23T01:11:41.846Z,0
2017-03-23T01:12:50.993Z,0
2017-03-23T01:14:00.039Z,0
2017-03-23T01:15:09.096Z,0
2017-03-23T01:16:17.850Z,0
2017-03-23T01:17:26.593Z,0
2017-03-23T01:18:35.301Z,0
2017-03-23T01:19:44.353Z,0
2017-03-23T01:20:53.675Z,0
2017-03-23T01:22:02.382Z,0
2017-03-23T01:23:11.125Z,0
2017-03-23T01:24:20.492Z,0
2017-03-23T01:25:29.555Z,0
2017-03-23T01:26:38.264Z,0
2017-03-23T01:27:47.305Z,0
2017-03-23T01:28:56.073Z,0
2017-03-23T01:30:04.842Z,0
2017-03-23T01:31:13.801Z,0
2017-03-23T01:32:22.806Z,0
2017-03-23T01:33:31.543Z,0
2017-03-23T01:34:40.547Z,0
2017-03-23T01:35:49.245Z,0
2017-03-23T01:36:57.997Z,0
2017-03-23T01:38:07.063Z,0
2017-03-23T01:39:15.816Z,0
2017-03-23T01:40:24.574Z,0
2017-03-23T01:41:33.342Z,0
2017-03-23T01:42:42.100Z,0
2017-03-23T01:43:51.109Z,0
2017-03-23T01:44:59.875Z,0
2017-03-23T01:46:08.642Z,0
2017-03-23T01:47:17.401Z,0
2017-03-23T01:48:26.465Z,0
2017-03-23T01:49:35.221Z,0
2017-03-23T01:50:43.932Z,0
2017-03-23T01:51:52.680Z,0
2017-03-23T01:53:01.438Z,0
2017-03-23T01:54:10.203Z,0
2017-03-23T01:55:18.959Z,0
2017-03-23T01:56:27.710Z,0
2017-03-23T01:57:36.464Z,0
2017-03-23T01:58:45.195Z,0
2017-03-23T01:59:54.241Z,0
2017-03-23T02:01:03.297Z,0
2017-03-23T02:02:12.209Z,0
2017-03-23T02:03:20.965Z,0
2017-03-23T02:04:30.022Z,0
2017-03-23T02:05:38.785Z,0
2017-03-23T02:06:47.552Z,0
2017-03-23T02:07:56.312Z,0
2017-03-23T02:09:05.360Z,0
2017-03-23T02:10:14.405Z,0
2017-03-23T02:11:23.162Z,0
2017-03-23T02:12:31.926Z,0
2017-03-23T02:13:40.688Z,0
2017-03-23T02:14:49.493Z,0
2017-03-23T02:15:58.261Z,0
2017-03-23T02:17:07.322Z,0
2017-03-23T02:18:16.086Z,0
2017-03-23T02:19:24.850Z,0
2017-03-23T02:20:33.617Z,0
2017-03-23T02:21:42.676Z,0
2017-03-23T02:22:51.446Z,0
2017-03-23T02:24:00.208Z,0
2017-03-23T02:25:08.913Z,0
2017-03-23T02:26:17.653Z,0
2017-03-23T02:27:26.417Z,0
2017-03-23T02:28:35.188Z,0
2017-03-23T02:29:43.954Z,0
2017-03-23T02:30:52.660Z,0
2017-03-23T02:32:01.699Z,0
2017-03-23T02:33:10.441Z,0
2017-03-23T02:34:19.208Z,0
2017-03-23T02:35:28.170Z,0
2017-03-23T02:36:36.933Z,0
2017-03-23T02:37:45.697Z,0
2017-03-23T02:38:54.404Z,0
2017-03-23T02:40:03.146Z,0
2017-03-23T02:41:11.849Z,0
2017-03-23T02:42:20.597Z,0
2017-03-23T02:43:29.354Z,0
2017-03-23T02:44:38.062Z,0
2017-03-23T02:45:47.012Z,0
2017-03-23T02:46:55.926Z,0
2017-03-23T02:48:04.625Z,0
2017-03-23T02:49:13.315Z,0
2017-03-23T02:50:22.373Z,0
2017-03-23T02:51:31.143Z,0
2017-03-23T02:52:39.896Z,0
2017-03-23T02:53:48.652Z,0
2017-03-23T02:54:57.712Z,0
2017-03-23T02:56:06.468Z,0
2017-03-23T02:57:15.234Z,0
2017-03-23T02:58:24.000Z,0
2017-03-23T02:59:32.707Z,0
2017-03-23T03:00:41.701Z,0
2017-03-23T03:01:50.450Z,0
2017-03-23T03:02:59.211Z,0
2017-03-23T03:04:07.979Z,0
2017-03-23T03:05:16.737Z,0
2017-03-23T03:06:25.500Z,0
2017-03-23T03:07:34.265Z,0
2017-03-23T03:08:42.968Z,0
2017-03-23T03:09:52.014Z,0
2017-03-23T03:11:00.718Z,0
2017-03-23T03:12:09.767Z,0
2017-03-23T03:13:18.534Z,0
2017-03-23T03:14:27.239Z,0
2017-03-23T03:15:35.928Z,0
2017-03-23T03:16:44.975Z,0
2017-03-23T03:17:54.012Z,0
2017-03-23T03:19:02.755Z,0
2017-03-23T03:20:11.517Z,0
2017-03-23T03:21:20.272Z,0
2017-03-23T03:22:29.039Z,0
2017-03-23T03:23:37.747Z,0
2017-03-23T03:24:46.497Z,0
2017-03-23T03:25:55.251Z,0
2017-03-23T03:27:04.316Z,0
2017-03-23T03:28:13.071Z,0
2017-03-23T03:29:21.826Z,0
2017-03-23T03:30:30.582Z,0
2017-03-23T03:31:39.345Z,0
2017-03-23T03:32:48.710Z,0
2017-03-23T03:33:57.468Z,0
2017-03-23T03:35:06.532Z,0
2017-03-23T03:36:15.301Z,0
2017-03-23T03:37:24.009Z,0
2017-03-23T03:38:32.754Z,0
2017-03-23T03:39:41.517Z,0
2017-03-23T03:40:50.272Z,0
2017-03-23T03:41:59.707Z,0
2017-03-23T03:43:08.503Z,0
2017-03-23T03:44:17.562Z,0
2017-03-23T03:45:26.620Z,0
2017-03-23T03:46:35.389Z,0
2017-03-23T03:47:44.151Z,0
2017-03-23T03:48:53.207Z,0
2017-03-23T03:50:01.947Z,0
2017-03-23T03:51:11.204Z,0
2017-03-23T03:52:26.314Z,0
2017-03-23T03:53:35.087Z,0
2017-03-23T03:54:43.858Z,0
2017-03-23T03:55:52.679Z,0
2017-03-23T03:57:01.773Z,0
2017-03-23T03:58:10.497Z,0
2017-03-23T03:59:19.265Z,0
2017-03-23T04:00:28.597Z,0
2017-03-23T04:01:37.372Z,0
2017-03-23T04:02:46.095Z,0
2017-03-23T04:03:54.912Z,0
2017-03-23T04:05:03.687Z,0
2017-03-23T04:06:12.464Z,0
2017-03-23T04:07:21.247Z,0
2017-03-23T04:08:30.021Z,0
2017-03-23T04:09:38.801Z,0
2017-03-23T04:10:47.581Z,0
2017-03-23T04:11:56.355Z,0
2017-03-23T04:13:05.078Z,0
2017-03-23T04:14:13.880Z,0
2017-03-23T04:15:22.656Z,0
2017-03-23T04:16:31.385Z,0
2017-03-23T04:17:40.456Z,0
2017-03-23T04:18:49.237Z,0
2017-03-23T04:19:58.016Z,0
2017-03-23T04:21:06.886Z,0
2017-03-23T04:22:15.659Z,0
2017-03-23T04:23:24.383Z,0
2017-03-23T04:24:33.143Z,0
2017-03-23T04:25:42.231Z,0
2017-03-23T04:26:51.008Z,0
2017-03-23T04:27:59.928Z,0
2017-03-23T04:29:08.993Z,0
2017-03-23T04:30:18.110Z,0
2017-03-23T04:31:27.171Z,0
2017-03-23T04:32:36.236Z,0
2017-03-23T04:33:45.007Z,0
2017-03-23T04:34:53.758Z,0
2017-03-23T04:36:02.844Z,0
2017-03-23T04:37:11.620Z,0
2017-03-23T04:38:20.397Z,0
2017-03-23T04:39:29.167Z,0
2017-03-23T04:40:37.946Z,0
2017-03-23T04:41:46.731Z,0
2017-03-23T04:42:55.501Z,0
2017-03-23T04:44:04.281Z,0
2017-03-23T04:45:13.046Z,0
2017-03-23T04:46:22.061Z,0
2017-03-23T04:47:30.800Z,0
2017-03-23T04:48:39.628Z,0
2017-03-23T04:49:48.405Z,0
2017-03-23T04:50:57.577Z,0
2017-03-23T04:52:06.593Z,0
2017-03-23T04:53:15.361Z,0
2017-03-23T04:54:24.742Z,0
2017-03-23T04:55:34.083Z,0
2017-03-23T04:56:42.787Z,0
2017-03-23T04:57:51.552Z,0
2017-03-23T04:59:00.276Z,0
2017-03-23T05:00:08.985Z,0
2017-03-23T05:01:17.753Z,0
2017-03-23T05:02:26.529Z,0
2017-03-23T05:03:35.610Z,0
2017-03-23T05:04:44.701Z,0
2017-03-23T05:05:53.727Z,0
2017-03-23T05:07:02.807Z,0
2017-03-23T05:08:11.529Z,4
2017-03-23T05:09:20.584Z,4
2017-03-23T05:10:29.363Z,0
2017-03-23T05:11:38.141Z,0
2017-03-23T05:12:46.919Z,4
2017-03-23T05:13:55.952Z,4
2017-03-23T05:15:05.031Z,4
2017-03-23T05:16:13.802Z,4
2017-03-23T05:17:22.824Z,8
2017-03-23T05:18:31.581Z,4
2017-03-23T05:19:40.654Z,8
2017-03-23T05:20:49.436Z,8
2017-03-23T05:21:58.162Z,8
2017-03-23T05:23:06.918Z,12
2017-03-23T05:24:15.694Z,16
2017-03-23T05:25:24.472Z,16
2017-03-23T05:26:33.220Z,20
2017-03-23T05:27:41.992Z,20
2017-03-23T05:28:50.767Z,24
2017-03-23T05:29:59.541Z,28
2017-03-23T05:31:08.317Z,32
2017-03-23T05:32:17.088Z,32
2017-03-23T05:33:25.803Z,36
2017-03-23T05:34:34.561Z,36
2017-03-23T05:35:43.652Z,40
2017-03-23T05:36:52.682Z,52
2017-03-23T05:38:01.440Z,56
2017-03-23T05:39:10.215Z,60
2017-03-23T05:40:18.995Z,68
2017-03-23T05:41:28.019Z,72
2017-03-23T05:42:36.726Z,80
2017-03-23T05:43:45.683Z,92
2017-03-23T05:44:54.759Z,100
2017-03-23T05:46:03.837Z,108
2017-03-23T05:47:12.612Z,124
2017-03-23T05:48:21.330Z,144
2017-03-23T05:49:30.092Z,160
2017-03-23T05:50:38.868Z,176
2017-03-23T05:51:47.650Z,192
2017-03-23T05:52:56.831Z,216
2017-03-23T05:54:05.607Z,232
2017-03-23T05:55:14.384Z,232
2017-03-23T05:56:23.103Z,232
2017-03-23T05:57:31.868Z,236
2017-03-23T05:58:40.647Z,232
2017-03-23T05:59:49.420Z,208
2017-03-23T06:00:58.142Z,196
2017-03-23T06:02:07.214Z,204
2017-03-23T06:03:16.293Z,232
2017-03-23T06:04:25.076Z,268
2017-03-23T06:05:34.171Z,280
2017-03-23T06:06:43.211Z,316
2017-03-23T06:07:51.972Z,376
2017-03-23T06:09:00.751Z,424
2017-03-23T06:10:09.788Z,444
2017-03-23T06:11:18.855Z,528
2017-03-23T06:12:27.640Z,528
2017-03-23T06:13:36.735Z,448
2017-03-23T06:14:46.128Z,352
2017-03-23T06:15:54.903Z,368
2017-03-23T06:17:03.682Z,492
2017-03-23T06:18:12.459Z,560
2017-03-23T06:19:21.254Z,512
2017-03-23T06:20:30.590Z,476
2017-03-23T06:21:39.624Z,496
2017-03-23T06:22:48.380Z,468
2017-03-23T06:23:57.160Z,488
2017-03-23T06:25:06.245Z,584
2017-03-23T06:26:15.621Z,556
2017-03-23T06:27:24.349Z,584
2017-03-23T06:28:33.124Z,648
2017-03-23T06:29:41.846Z,648
2017-03-23T06:30:50.807Z,672
2017-03-23T06:31:59.584Z,700
2017-03-23T06:33:08.365Z,708
2017-03-23T06:34:17.141Z,728
2017-03-23T06:35:25.925Z,740
2017-03-23T06:36:35.307Z,776
2017-03-23T06:37:44.085Z,784
2017-03-23T06:38:52.861Z,824
2017-03-23T06:40:01.583Z,844
2017-03-23T06:41:10.864Z,868
2017-03-23T06:42:19.634Z,888
2017-03-23T06:43:28.412Z,688
2017-03-23T06:44:37.193Z,872
2017-03-23T06:45:46.266Z,800
2017-03-23T06:46:55.025Z,1012
2017-03-23T06:48:04.104Z,1192
2017-03-23T06:49:12.883Z,1304
2017-03-23T06:50:21.956Z,1420
2017-03-23T06:51:31.035Z,1516
2017-03-23T06:52:39.748Z,1572
2017-03-23T06:53:48.516Z,1640
2017-03-23T06:54:57.845Z,1668
2017-03-23T06:56:06.910Z,1724
2017-03-23T06:57:15.692Z,1788
2017-03-23T06:58:24.599Z,1828
2017-03-23T06:59:33.362Z,1852
2017-03-23T07:00:42.341Z,1904
2017-03-23T07:01:51.156Z,1972
2017-03-23T07:02:59.930Z,1972
2017-03-23T07:04:08.705Z,2140
2017-03-23T07:05:17.789Z,2352
2017-03-23T07:06:27.182Z,2812
2017-03-23T07:07:35.955Z,4448
2017-03-23T07:08:45.045Z,6728
2017-03-23T07:09:54.434Z,7120
2017-03-23T07:11:03.463Z,7608
2017-03-23T07:12:12.230Z,7828
2017-03-23T07:13:21.015Z,8476
2017-03-23T07:14:29.788Z,8960
2017-03-23T07:15:38.867Z,9028
2017-03-23T07:16:47.635Z,8768
2017-03-23T07:17:56.663Z,9000
2017-03-23T07:19:05.735Z,8992
2017-03-23T07:20:14.514Z,9924
2017-03-23T07:21:23.636Z,9716
2017-03-23T07:22:32.421Z,9512
2017-03-23T07:23:41.220Z,10244
2017-03-23T07:24:50.310Z,9908
2017-03-23T07:25:59.079Z,10956
2017-03-23T07:27:07.862Z,11160
2017-03-23T07:28:16.599Z,12032
2017-03-23T07:29:25.369Z,12012
2017-03-23T07:30:34.761Z,12004
2017-03-23T07:31:43.840Z,12640
2017-03-23T07:32:53.197Z,12176
2017-03-23T07:34:02.579Z,12768
2017-03-23T07:35:12.223Z,12800
2017-03-23T07:36:21.010Z,12928
2017-03-23T07:37:29.787Z,12496
2017-03-23T07:38:38.875Z,11716
2017-03-23T07:39:47.962Z,13568
2017-03-23T07:40:56.789Z,10220
2017-03-23T07:42:05.553Z,5176
2017-03-23T07:43:14.311Z,4192
2017-03-23T07:44:23.337Z,4060
2017-03-23T07:45:32.098Z,4012
2017-03-23T07:46:40.872Z,3876
2017-03-23T07:47:49.654Z,3816
2017-03-23T07:48:58.436Z,3640
2017-03-23T07:50:07.222Z,3660
2017-03-23T07:51:16.005Z,3656
2017-03-23T07:52:24.783Z,3732
2017-03-23T07:53:33.561Z,3700
2017-03-23T07:54:42.335Z,3696
2017-03-23T07:55:51.112Z,3660
2017-03-23T07:56:59.895Z,3668
2017-03-23T07:58:08.673Z,3656
2017-03-23T07:59:17.450Z,3692
2017-03-23T08:00:26.569Z,3700
2017-03-23T08:01:35.391Z,3668
2017-03-23T08:02:44.167Z,3656
2017-03-23T08:03:52.943Z,3684
2017-03-23T08:05:02.187Z,3660
2017-03-23T08:06:11.229Z,3704
2017-03-23T08:07:20.299Z,3708
2017-03-23T08:08:29.079Z,3676
2017-03-23T08:09:38.158Z,3728
2017-03-23T08:10:46.879Z,3692
2017-03-23T08:11:56.257Z,3768
2017-03-23T08:13:05.330Z,3784
2017-03-23T08:14:14.069Z,3844
2017-03-23T08:15:22.829Z,3812
2017-03-23T08:16:31.919Z,3864
2017-03-23T08:17:40.701Z,3984
2017-03-23T08:18:49.479Z,4088
2017-03-23T08:19:58.561Z,4072
2017-03-23T08:21:07.341Z,4124
2017-03-23T08:22:16.421Z,4056
2017-03-23T08:23:25.404Z,4080
2017-03-23T08:24:34.186Z,4092
2017-03-23T08:25:42.973Z,4088
2017-03-23T08:26:51.698Z,4072
2017-03-23T08:28:00.405Z,4252
2017-03-23T08:29:09.173Z,3936
2017-03-23T08:30:17.899Z,3260
2017-03-23T08:31:26.665Z,4220
2017-03-23T08:32:35.436Z,4116
2017-03-23T08:33:44.519Z,4084
2017-03-23T08:34:53.603Z,3540
2017-03-23T08:36:02.690Z,4136
2017-03-23T08:37:11.479Z,4308
2017-03-23T08:38:20.558Z,4352
2017-03-23T08:39:29.336Z,4048
2017-03-23T08:40:38.426Z,3880
2017-03-23T08:41:47.510Z,4064
2017-03-23T08:42:56.292Z,4140
2017-03-23T08:44:05.105Z,4196
2017-03-23T08:45:14.219Z,4088
2017-03-23T08:46:23.607Z,4072
2017-03-23T08:47:32.686Z,4056
2017-03-23T08:48:41.461Z,4172
2017-03-23T08:49:50.546Z,4232
2017-03-23T08:50:59.533Z,4064
2017-03-23T08:52:08.258Z,4132
2017-03-23T08:53:17.029Z,4172
2017-03-23T08:54:26.114Z,4256
2017-03-23T08:55:34.890Z,4404
2017-03-23T08:56:43.986Z,4420
2017-03-23T08:57:53.066Z,4240
2017-03-23T08:59:01.841Z,2576
2017-03-23T09:00:10.929Z,2812
2017-03-23T09:01:19.704Z,4764
2017-03-23T09:02:28.487Z,4512
2017-03-23T09:03:37.270Z,4660
2017-03-23T09:04:46.052Z,4628
2017-03-23T09:05:54.844Z,4296
2017-03-23T09:07:03.939Z,4424
2017-03-23T09:08:13.032Z,2524
2017-03-23T09:09:21.817Z,4920
2017-03-23T09:10:30.912Z,5528
2017-03-23T09:11:39.891Z,5092
2017-03-23T09:12:48.673Z,5300
2017-03-23T09:13:57.465Z,5320
2017-03-23T09:15:06.548Z,8956
2017-03-23T09:16:15.647Z,20896
2017-03-23T09:17:24.371Z,23872
2017-03-23T09:18:33.083Z,23904
2017-03-23T09:19:41.850Z,23296
2017-03-23T09:20:50.938Z,22336
2017-03-23T09:22:00.026Z,24128
2017-03-23T09:23:09.117Z,22880
2017-03-23T09:24:17.891Z,20000
2017-03-23T09:25:26.925Z,11132
2017-03-23T09:26:35.998Z,26016
2017-03-23T09:27:44.781Z,24320
2017-03-23T09:28:53.562Z,22816
2017-03-23T09:30:02.340Z,22880
2017-03-23T09:31:11.938Z,19136
2017-03-23T09:32:21.035Z,24608
2017-03-23T09:33:29.818Z,26976
2017-03-23T09:34:39.196Z,26080
2017-03-23T09:35:47.983Z,24800
2017-03-23T09:36:57.066Z,24224
2017-03-23T09:38:06.145Z,24544
2017-03-23T09:39:15.229Z,22752
2017-03-23T09:40:24.011Z,11856
2017-03-23T09:41:33.053Z,7124
2017-03-23T09:42:42.729Z,7860
2017-03-23T09:43:51.503Z,4716
2017-03-23T09:45:00.628Z,8744
2017-03-23T09:46:09.407Z,27296
2017-03-23T09:47:18.187Z,26464
2017-03-23T09:48:26.970Z,22656
2017-03-23T09:49:35.698Z,10136
2017-03-23T09:50:44.417Z,15484
2017-03-23T09:51:53.192Z,14836
2017-03-23T09:53:02.279Z,11056
2017-03-23T09:54:11.066Z,13368
2017-03-23T09:55:20.465Z,7980
2017-03-23T09:56:29.241Z,11124
2017-03-23T09:57:38.029Z,11308
2017-03-23T09:58:46.811Z,4888
2017-03-23T09:59:56.167Z,12616
2017-03-23T10:01:05.154Z,5552
2017-03-23T10:02:13.945Z,7996
2017-03-23T10:03:22.732Z,27968
2017-03-23T10:04:31.817Z,36928
2017-03-23T10:05:40.603Z,38848
2017-03-23T10:06:49.335Z,37440
2017-03-23T10:07:58.212Z,35360
2017-03-23T10:09:07.249Z,32416
2017-03-23T10:10:16.032Z,16444
2017-03-23T10:11:25.018Z,10404
2017-03-23T10:12:33.789Z,16704
2017-03-23T10:13:42.767Z,15636
2017-03-23T10:14:51.493Z,15480
2017-03-23T10:16:00.463Z,14124
2017-03-23T10:17:09.241Z,7888
2017-03-23T10:18:18.324Z,11344
2017-03-23T10:19:27.102Z,11436
2017-03-23T10:20:36.193Z,11836
2017-03-23T10:21:45.434Z,12416
2017-03-23T10:22:54.200Z,13148
2017-03-23T10:24:02.970Z,11764
2017-03-23T10:25:12.056Z,10844
2017-03-23T10:26:20.837Z,10736
2017-03-23T10:27:29.627Z,10800
2017-03-23T10:28:38.404Z,10772
2017-03-23T10:29:47.212Z,9348
2017-03-23T10:30:56.000Z,7868
2017-03-23T10:32:04.786Z,7068
2017-03-23T10:33:13.571Z,6976
2017-03-23T10:34:22.358Z,6660
2017-03-23T10:35:31.143Z,6524
2017-03-23T10:36:40.232Z,6480
2017-03-23T10:37:49.026Z,6576
2017-03-23T10:38:58.103Z,6572
2017-03-23T10:40:06.859Z,6532
2017-03-23T10:41:15.624Z,6400
2017-03-23T10:42:24.413Z,6416
2017-03-23T10:43:33.201Z,6516
2017-03-23T10:44:41.984Z,6624
2017-03-23T10:45:51.111Z,5536
2017-03-23T10:46:59.932Z,8024
2017-03-23T10:48:08.712Z,8492
2017-03-23T10:49:17.498Z,9452
2017-03-23T10:50:26.229Z,8496
2017-03-23T10:51:34.998Z,8368
2017-03-23T10:52:43.797Z,9108
2017-03-23T10:53:52.582Z,9760
2017-03-23T10:55:01.672Z,9504
2017-03-23T10:56:10.413Z,9288
2017-03-23T10:57:19.482Z,9324
2017-03-23T10:58:28.566Z,9384
2017-03-23T10:59:37.613Z,9416
2017-03-23T11:00:46.395Z,9280
2017-03-23T11:01:55.177Z,9120
2017-03-23T11:03:03.954Z,9256
2017-03-23T11:04:12.683Z,9268
2017-03-23T11:05:21.452Z,9056
2017-03-23T11:06:30.234Z,9056
2017-03-23T11:07:39.019Z,9152
2017-03-23T11:08:47.807Z,8968
2017-03-23T11:09:56.605Z,8696
2017-03-23T11:11:05.336Z,8728
2017-03-23T11:12:14.104Z,9208
2017-03-23T11:13:22.889Z,9868
2017-03-23T11:14:31.682Z,10188
2017-03-23T11:15:40.463Z,9664
2017-03-23T11:16:49.602Z,9744
2017-03-23T11:17:58.347Z,10092
2017-03-23T11:19:07.371Z,9640
2017-03-23T11:20:16.134Z,9440
2017-03-23T11:21:25.218Z,9632
2017-03-23T11:22:33.953Z,10080
2017-03-23T11:23:42.729Z,9760
2017-03-23T11:24:51.515Z,9504
2017-03-23T11:26:00.303Z,9604
2017-03-23T11:27:09.089Z,9736
2017-03-23T11:28:17.871Z,9644
2017-03-23T11:29:26.650Z,10036
2017-03-23T11:30:35.377Z,10176
2017-03-23T11:31:44.140Z,10232
2017-03-23T11:32:52.924Z,10140
2017-03-23T11:34:01.654Z,9964
2017-03-23T11:35:10.425Z,10104
2017-03-23T11:36:19.214Z,10336
2017-03-23T11:37:28.003Z,10492
2017-03-23T11:38:36.785Z,10756
2017-03-23T11:39:45.574Z,10644
2017-03-23T11:40:54.512Z,11408
2017-03-23T11:42:03.322Z,11904
2017-03-23T11:43:12.109Z,12292
2017-03-23T11:44:21.140Z,11100
2017-03-23T11:45:30.202Z,9360
2017-03-23T11:46:38.974Z,10980
2017-03-23T11:47:48.064Z,12244
2017-03-23T11:48:56.839Z,12340
2017-03-23T11:50:05.620Z,13792
2017-03-23T11:51:14.412Z,16416
2017-03-23T11:52:23.196Z,19584
2017-03-23T11:53:31.984Z,21152
2017-03-23T11:54:40.761Z,21824
2017-03-23T11:55:49.560Z,23456
2017-03-23T11:56:58.650Z,24224
2017-03-23T11:58:07.748Z,25152
2017-03-23T11:59:16.539Z,24320
2017-03-23T12:00:25.325Z,23552
2017-03-23T12:01:34.417Z,24128
2017-03-23T12:02:43.814Z,27872
2017-03-23T12:03:52.600Z,32000
2017-03-23T12:05:01.386Z,36352
2017-03-23T12:06:10.487Z,46176
2017-03-23T12:07:19.274Z,47648
2017-03-23T12:08:28.006Z,15488
2017-03-23T12:09:36.786Z,3812
2017-03-23T12:10:46.189Z,3284
2017-03-23T12:11:54.977Z,2668
2017-03-23T12:13:03.763Z,2240
2017-03-23T12:14:12.554Z,2124
2017-03-23T12:15:21.340Z,2068
2017-03-23T12:16:30.121Z,2012
2017-03-23T12:17:38.904Z,1984
2017-03-23T12:18:47.781Z,1952
2017-03-23T12:19:56.575Z,1896
2017-03-23T12:21:05.355Z,1884
2017-03-23T12:22:14.084Z,1808
2017-03-23T12:23:22.826Z,1868
2017-03-23T12:24:31.596Z,1864
2017-03-23T12:25:40.417Z,1840
2017-03-23T12:26:49.150Z,1784
2017-03-23T12:27:58.124Z,1688
2017-03-23T12:29:06.884Z,1668
2017-03-23T12:30:16.260Z,1720
2017-03-23T12:31:25.045Z,1724
2017-03-23T12:32:33.827Z,1696
2017-03-23T12:33:42.613Z,1664
2017-03-23T12:34:51.389Z,1644
2017-03-23T12:36:00.433Z,1636
2017-03-23T12:37:09.200Z,1628
2017-03-23T12:38:17.984Z,1628
2017-03-23T12:39:27.019Z,1620
2017-03-23T12:40:35.791Z,1608
2017-03-23T12:41:44.580Z,1596
2017-03-23T12:42:53.362Z,1580
2017-03-23T12:44:02.446Z,1568
2017-03-23T12:45:11.226Z,1560
2017-03-23T12:46:20.003Z,1552
2017-03-23T12:47:28.795Z,1548
2017-03-23T12:48:37.900Z,1540
2017-03-23T12:49:46.692Z,1540
2017-03-23T12:50:55.474Z,1544
2017-03-23T12:52:04.253Z,1544
2017-03-23T12:53:13.350Z,1556
2017-03-23T12:54:22.432Z,1560
2017-03-23T12:55:31.222Z,1548
2017-03-23T12:56:40.000Z,1536
2017-03-23T12:57:48.741Z,1524
2017-03-23T12:58:57.539Z,1516
2017-03-23T13:00:06.324Z,1508
2017-03-23T13:01:15.409Z,1484
2017-03-23T13:02:24.805Z,1500
2017-03-23T13:03:33.589Z,1520
2017-03-23T13:04:42.370Z,1528
2017-03-23T13:05:51.150Z,1552
2017-03-23T13:07:00.541Z,1552
2017-03-23T13:08:09.265Z,1568
2017-03-23T13:09:17.981Z,1592
2017-03-23T13:10:26.708Z,1612
2017-03-23T13:11:35.514Z,1584
2017-03-23T13:12:44.288Z,1600
2017-03-23T13:13:53.372Z,1604
2017-03-23T13:15:02.171Z,1592
2017-03-23T13:16:11.571Z,1560
2017-03-23T13:17:20.367Z,1496
2017-03-23T13:18:29.149Z,1424
2017-03-23T13:19:38.384Z,1444
2017-03-23T13:20:47.413Z,1436
2017-03-23T13:21:56.180Z,1380
2017-03-23T13:23:05.574Z,1052
2017-03-23T13:24:14.355Z,1196
2017-03-23T13:25:23.141Z,1308
2017-03-23T13:26:31.871Z,1348
2017-03-23T13:27:40.940Z,1356
2017-03-23T13:28:50.033Z,1344
2017-03-23T13:29:59.018Z,1216
2017-03-23T13:31:08.105Z,1200
2017-03-23T13:32:16.833Z,1248
2017-03-23T13:33:25.915Z,1220
2017-03-23T13:34:34.946Z,1200
2017-03-23T13:35:44.020Z,1204
2017-03-23T13:36:53.057Z,1184
2017-03-23T13:38:01.826Z,1176
2017-03-23T13:39:10.553Z,1168
2017-03-23T13:40:19.601Z,1112
2017-03-23T13:41:28.388Z,1172
2017-03-23T13:42:37.168Z,1160
2017-03-23T13:43:46.258Z,1124
2017-03-23T13:44:55.045Z,1056
2017-03-23T13:46:03.769Z,1136
2017-03-23T13:47:12.544Z,1188
2017-03-23T13:48:21.319Z,1260
2017-03-23T13:49:30.100Z,1228
2017-03-23T13:50:38.877Z,1264
2017-03-23T13:51:47.654Z,1248
2017-03-23T13:52:56.382Z,1252
2017-03-23T13:54:05.241Z,1232
2017-03-23T13:55:14.319Z,1208
2017-03-23T13:56:23.095Z,1216
2017-03-23T13:57:32.177Z,1196
2017-03-23T13:58:40.958Z,1168
2017-03-23T13:59:50.054Z,1132
2017-03-23T14:00:59.141Z,1140
2017-03-23T14:02:07.918Z,1148
2017-03-23T14:03:16.701Z,1160
2017-03-23T14:04:25.474Z,1192
2017-03-23T14:05:34.256Z,1204
2017-03-23T14:06:43.036Z,1148
2017-03-23T14:07:51.852Z,1032
2017-03-23T14:09:00.732Z,984
2017-03-23T14:10:09.511Z,804
2017-03-23T14:11:18.597Z,848
2017-03-23T14:12:27.590Z,788
2017-03-23T14:13:36.414Z,716
2017-03-23T14:14:45.206Z,708
2017-03-23T14:15:53.986Z,712
2017-03-23T14:17:03.307Z,784
2017-03-23T14:18:12.084Z,884
2017-03-23T14:19:21.161Z,1056
2017-03-23T14:20:29.925Z,1096
2017-03-23T14:21:38.650Z,1184
2017-03-23T14:22:48.027Z,1280
2017-03-23T14:23:57.415Z,1352
2017-03-23T14:25:06.555Z,1320
2017-03-23T14:26:15.330Z,1212
2017-03-23T14:27:24.056Z,1176
2017-03-23T14:28:33.084Z,1124
2017-03-23T14:29:42.147Z,1024
2017-03-23T14:30:51.201Z,936
2017-03-23T14:31:59.927Z,884
2017-03-23T14:33:09.051Z,840
2017-03-23T14:34:17.813Z,824
2017-03-23T14:35:26.898Z,808
2017-03-23T14:36:35.995Z,800
2017-03-23T14:37:44.776Z,792
2017-03-23T14:38:53.553Z,784
2017-03-23T14:40:02.326Z,780
2017-03-23T14:41:11.718Z,788
2017-03-23T14:42:20.776Z,796
2017-03-23T14:43:29.491Z,796
2017-03-23T14:44:38.265Z,796
2017-03-23T14:45:47.039Z,800
2017-03-23T14:46:55.818Z,784
2017-03-23T14:48:04.602Z,768
2017-03-23T14:49:13.685Z,772
2017-03-23T14:50:22.471Z,784
2017-03-23T14:51:31.256Z,808
2017-03-23T14:52:40.032Z,808
2017-03-23T14:53:48.821Z,788
2017-03-23T14:54:57.547Z,768
2017-03-23T14:56:06.323Z,764
2017-03-23T14:57:15.096Z,752
2017-03-23T14:58:24.126Z,752
2017-03-23T14:59:33.196Z,768
2017-03-23T15:00:41.919Z,700
2017-03-23T15:01:50.706Z,664
2017-03-23T15:02:59.480Z,660
2017-03-23T15:04:08.561Z,628
2017-03-23T15:05:17.640Z,624
2017-03-23T15:06:26.419Z,636
2017-03-23T15:07:35.510Z,640
2017-03-23T15:08:44.595Z,624
2017-03-23T15:09:53.681Z,600
2017-03-23T15:11:02.729Z,592
2017-03-23T15:12:12.150Z,588
2017-03-23T15:13:20.934Z,616
2017-03-23T15:14:29.702Z,608
2017-03-23T15:15:38.487Z,588
2017-03-23T15:16:47.225Z,588
2017-03-23T15:17:55.995Z,580
2017-03-23T15:19:04.773Z,588
2017-03-23T15:20:13.557Z,612
2017-03-23T15:21:22.656Z,652
2017-03-23T15:22:31.436Z,648
2017-03-23T15:23:40.215Z,628
2017-03-23T15:24:49.605Z,592
2017-03-23T15:25:58.691Z,552
2017-03-23T15:27:07.775Z,540
2017-03-23T15:28:17.005Z,532
2017-03-23T15:29:25.726Z,488
2017-03-23T15:30:34.817Z,452
2017-03-23T15:31:43.598Z,448
2017-03-23T15:32:52.318Z,440
2017-03-23T15:34:01.084Z,436
2017-03-23T15:35:09.811Z,448
2017-03-23T15:36:18.582Z,440
2017-03-23T15:37:27.628Z,440
2017-03-23T15:38:36.895Z,420
2017-03-23T15:39:45.618Z,408
2017-03-23T15:40:54.382Z,404
2017-03-23T15:42:03.464Z,420
2017-03-23T15:43:12.241Z,420
2017-03-23T15:44:21.037Z,388
2017-03-23T15:45:30.124Z,364
2017-03-23T15:46:38.850Z,372
2017-03-23T15:47:47.560Z,376
2017-03-23T15:48:56.522Z,372
2017-03-23T15:50:05.919Z,368
2017-03-23T15:51:15.008Z,372